Airfield :
LOGIN :

Register | Disclaimer

   EN    FR    IT 

 










Legend :    VFR   Marginal VFR   IFR   Intensive IFR   Very Intensive IFR
Visi :
Ceiling :
>= 8 km
>= 3000ft
5 to 8 km
1000 to 3000 ft
1500m to 5 km
500 to 1000 ft
800 to 1500m
200 to 500 ft
< 800m
< 200 ft
Symbols :   Thunderstorms  Fog  Heavy snow  Heavy precipitations  Wind > 20 kt
SIGMETs :     Misc.  Thunderstorms  Icing  Turbulence  Mountain Waves  Volcanic Ashes







- Airport Elevation : 2026 ft
- IATA code : TOJ


LETO - Madrid Torrejon

CURRENT METAR :
  • 222200Z 02003KT CAVOK 15/12 Q1018 NOSIG

EXPIRED METARs :
  • 222100Z 03004KT CAVOK 16/12 Q1017 NOSIG
  • 222000Z 03003KT CAVOK 16/12 Q1017 NOSIG

TAF TAF LETO
Valid from the 22 at 18:00 until the 23 at 18:00 UTC


221700Z 2218/2318 09007KT 9999 FEW065 TX25/2315Z TN11/2306Z
TEMPO 2314/2316 FEW050TCU
No reported NOTAMs for that airfield.
1 SIGMET reported for the Madrid FIR (LECM) :
 
Embedded thunderstorms
LECM SIGMET 14 VALID 222115/222350 LEVA
LECM MADRID FIR/UIR EMBD TS OBS AT 2049Z WI N3554 W00722 - N4003 W00653 - N4057 W00344 - N4008 W00255 - N3554 W00258 - N3554 W00722 TOP FL360 MOV N 20KT NC=



MET'MAP, your aeronautical weather chart ! - Copyright ORBIFLY December 2007 - Disclaimer

ORBIFLY MET'MAP TEAM :

Programming & Development : Alexandra Zaïnal
Concept & Development : Baudouin d'Aumeries
Co-Development & Prog : Marc-Olivier Méhu
Technical & hardware support : Manuel Goepfert

Contact : metmap@orbifly.com




SOURCES & CREDITS :

   NOAA